Time;durP1;ratioP1;P1;durP2;ratioP2;P2;SDS_P1;SDS_P2;PMS_P1;PMS_P2;Temp;Humidity;BMP_temperature;BMP_pressure;BME280_temperature;BME280_humidity;BME280_pressure;Samples;Min_cycle;Max_cycle;Signal;HPM_P1;HPM_P2
2022/11/26 00:01:40;;;;;;;7.87;4.80;;;;;;;;;;4973464;28;20178;-77
2022/11/26 00:04:05;;;;;;;9.63;4.30;;;;;;;;;;4974614;28;20222;-78
2022/11/26 00:06:33;;;;;;;6.93;4.70;;;;;;;;;;4975151;28;20181;-78
2022/11/26 00:08:59;;;;;;;8.37;4.20;;;;;;;;;;4979618;28;20232;-77
2022/11/26 00:11:24;;;;;;;6.97;4.07;;;;;;;;;;4976123;28;20266;-78
2022/11/26 00:13:49;;;;;;;10.60;4.13;;;;;;;;;;4972817;28;20178;-77
2022/11/26 00:16:15;;;;;;;9.63;4.03;;;;;;;;;;4972216;28;20191;-78
2022/11/26 00:18:40;;;;;;;10.27;3.90;;;;;;;;;;4973334;28;20221;-78
2022/11/26 00:21:12;;;;;;;8.20;3.50;;;;;;;;;;4973217;28;20199;-79
2022/11/26 00:23:37;;;;;;;7.03;3.50;;;;;;;;;;4974125;28;20212;-77
2022/11/26 00:26:03;;;;;;;8.00;3.50;;;;;;;;;;4975648;28;20177;-78
2022/11/26 00:28:31;;;;;;;6.60;3.47;;;;;;;;;;4975727;28;20178;-77
2022/11/26 00:30:58;;;;;;;10.30;4.00;;;;;;;;;;4971176;28;20191;-77
2022/11/26 00:33:24;;;;;;;5.20;3.10;;;;;;;;;;4972929;28;20189;-77
2022/11/26 00:35:51;;;;;;;6.10;3.50;;;;;;;;;;4969720;28;20979;-78
2022/11/26 00:38:19;;;;;;;6.03;3.53;;;;;;;;;;4971222;28;20209;-77
2022/11/26 00:40:44;;;;;;;5.20;3.10;;;;;;;;;;4975780;28;20203;-78
2022/11/26 00:43:10;;;;;;;5.80;3.03;;;;;;;;;;4973212;28;20239;-78
2022/11/26 00:45:35;;;;;;;4.80;3.83;;;;;;;;;;4972137;28;20184;-78
2022/11/26 00:48:01;;;;;;;12.03;4.23;;;;;;;;;;4979666;28;20181;-77
2022/11/26 00:50:30;;;;;;;6.70;3.77;;;;;;;;;;4972565;28;20266;-78
2022/11/26 00:52:55;;;;;;;6.37;3.50;;;;;;;;;;4975164;28;20183;-77
2022/11/26 00:55:35;;;;;;;9.13;3.97;;;;;;;;;;4972477;28;20184;-78
2022/11/26 00:58:00;;;;;;;7.20;2.70;;;;;;;;;;4970283;28;20208;-78
2022/11/26 01:00:27;;;;;;;3.80;3.47;;;;;;;;;;4973383;28;20302;-78
2022/11/26 01:02:52;;;;;;;8.00;4.00;;;;;;;;;;4973559;28;20234;-78
2022/11/26 01:05:18;;;;;;;10.53;3.53;;;;;;;;;;4967262;28;20213;-78
2022/11/26 01:07:44;;;;;;;7.53;4.17;;;;;;;;;;4970658;28;20187;-78
2022/11/26 01:10:19;;;;;;;11.93;4.50;;;;;;;;;;4972674;28;20184;-78
2022/11/26 01:12:44;;;;;;;12.63;4.90;;;;;;;;;;4974931;28;20194;-77
2022/11/26 01:15:10;;;;;;;11.93;4.43;;;;;;;;;;4974933;28;20180;-77
2022/11/26 01:17:35;;;;;;;12.57;6.17;;;;;;;;;;4973819;28;20261;-77
2022/11/26 01:20:01;;;;;;;6.63;4.00;;;;;;;;;;4977569;28;20188;-78
2022/11/26 01:22:26;;;;;;;10.43;5.13;;;;;;;;;;4971684;28;20231;-78
2022/11/26 01:24:51;;;;;;;18.77;5.80;;;;;;;;;;4969602;28;20189;-78
2022/11/26 01:27:18;;;;;;;9.60;5.30;;;;;;;;;;4972081;28;20246;-77
2022/11/26 01:29:43;;;;;;;9.47;4.33;;;;;;;;;;4976032;28;20182;-79
2022/11/26 01:32:09;;;;;;;10.10;4.73;;;;;;;;;;4971634;28;20183;-78
2022/11/26 01:34:34;;;;;;;14.80;5.97;;;;;;;;;;4975731;28;20227;-77
2022/11/26 01:36:59;;;;;;;9.47;5.90;;;;;;;;;;4977177;28;20184;-77
2022/11/26 01:39:25;;;;;;;13.60;4.80;;;;;;;;;;4979245;28;20413;-78
2022/11/26 01:42:16;;;;;;;12.20;6.23;;;;;;;;;;4990491;28;20186;-77
2022/11/26 01:44:41;;;;;;;15.07;6.87;;;;;;;;;;4958781;28;20285;-77
2022/11/26 01:47:24;;;;;;;12.70;7.77;;;;;;;;;;4988013;28;20311;-77
2022/11/26 01:50:08;;;;;;;14.40;6.60;;;;;;;;;;4974417;28;20186;-78
2022/11/26 01:52:34;;;;;;;14.20;7.23;;;;;;;;;;4976003;28;20210;-77
2022/11/26 01:54:59;;;;;;;10.10;6.47;;;;;;;;;;4968218;28;20191;-77
2022/11/26 01:57:27;;;;;;;11.53;6.97;;;;;;;;;;4968677;28;20200;-77
2022/11/26 02:00:00;;;;;;;8.57;5.80;;;;;;;;;;4970051;28;20183;-78
2022/11/26 02:02:26;;;;;;;8.47;5.93;;;;;;;;;;4968353;28;20323;-77
2022/11/26 02:05:13;;;;;;;15.27;5.80;;;;;;;;;;4987007;28;20188;-77
2022/11/26 02:07:38;;;;;;;10.47;5.93;;;;;;;;;;4973209;28;20191;-77
2022/11/26 02:10:04;;;;;;;10.40;6.40;;;;;;;;;;4970645;28;20186;-78
2022/11/26 02:12:29;;;;;;;7.57;5.20;;;;;;;;;;4968811;28;20181;-78
2022/11/26 02:14:54;;;;;;;16.07;6.27;;;;;;;;;;4969975;28;20192;-78
2022/11/26 02:17:19;;;;;;;12.33;5.03;;;;;;;;;;4971764;28;20205;-78
2022/11/26 02:19:54;;;;;;;11.00;5.03;;;;;;;;;;4976559;28;20191;-79
2022/11/26 02:22:38;;;;;;;15.90;6.10;;;;;;;;;;4972945;28;20186;-78
2022/11/26 02:25:16;;;;;;;10.63;6.00;;;;;;;;;;4968921;28;20262;-78
2022/11/26 02:27:41;;;;;;;12.63;6.40;;;;;;;;;;4991675;28;20194;-78
2022/11/26 02:30:13;;;;;;;13.03;6.63;;;;;;;;;;4975244;28;20186;-79
2022/11/26 02:32:38;;;;;;;13.37;6.60;;;;;;;;;;4964332;28;20183;-77
2022/11/26 02:35:13;;;;;;;17.57;5.93;;;;;;;;;;4980062;28;20480;-78
2022/11/26 02:37:45;;;;;;;10.73;6.07;;;;;;;;;;4970320;28;20317;-78
2022/11/26 02:40:10;;;;;;;12.27;7.77;;;;;;;;;;4974852;28;20196;-77
2022/11/26 02:42:36;;;;;;;10.97;6.80;;;;;;;;;;4979428;28;20217;-77
2022/11/26 02:45:06;;;;;;;9.80;6.20;;;;;;;;;;4967741;28;20278;-78
2022/11/26 02:47:32;;;;;;;19.60;7.77;;;;;;;;;;4968714;28;20179;-78
2022/11/26 02:50:00;;;;;;;11.30;6.73;;;;;;;;;;4971630;28;20202;-78
2022/11/26 02:52:26;;;;;;;15.57;7.87;;;;;;;;;;4972266;28;20186;-78
2022/11/26 02:54:51;;;;;;;14.60;6.83;;;;;;;;;;4970271;28;20184;-78
2022/11/26 02:57:18;;;;;;;11.73;6.80;;;;;;;;;;4968696;28;20191;-78
2022/11/26 02:59:44;;;;;;;16.03;7.53;;;;;;;;;;4970485;28;20190;-77
2022/11/26 03:02:32;;;;;;;13.00;8.17;;;;;;;;;;4987285;28;20182;-77
2022/11/26 03:04:59;;;;;;;8.13;6.33;;;;;;;;;;4985740;28;20193;-78
2022/11/26 03:07:25;;;;;;;12.73;6.63;;;;;;;;;;4973991;28;20193;-77
2022/11/26 03:09:51;;;;;;;11.60;7.43;;;;;;;;;;4971889;28;20180;-78
2022/11/26 03:12:17;;;;;;;14.00;7.60;;;;;;;;;;4986079;28;20187;-77
2022/11/26 03:14:42;;;;;;;14.07;8.50;;;;;;;;;;4974663;28;20230;-78
2022/11/26 03:17:07;;;;;;;20.20;7.20;;;;;;;;;;4977753;28;20206;-77
2022/11/26 03:19:32;;;;;;;15.30;7.53;;;;;;;;;;4970815;28;20230;-77
2022/11/26 03:21:58;;;;;;;15.30;7.67;;;;;;;;;;4971232;28;20187;-78
2022/11/26 03:24:23;;;;;;;14.23;7.03;;;;;;;;;;4971108;28;20216;-77
2022/11/26 03:26:48;;;;;;;13.87;6.67;;;;;;;;;;4964383;28;20184;-78
2022/11/26 03:29:13;;;;;;;14.03;8.10;;;;;;;;;;4970420;28;20178;-77
2022/11/26 03:31:38;;;;;;;16.23;7.50;;;;;;;;;;4972743;28;20266;-77
2022/11/26 03:34:04;;;;;;;10.63;7.13;;;;;;;;;;4975139;28;20186;-78
2022/11/26 03:36:29;;;;;;;12.40;6.73;;;;;;;;;;4971592;28;20184;-77
2022/11/26 03:38:54;;;;;;;14.20;7.37;;;;;;;;;;4971345;28;20180;-78
2022/11/26 03:41:19;;;;;;;8.90;6.53;;;;;;;;;;4987850;28;20267;-78
2022/11/26 03:43:44;;;;;;;15.53;7.40;;;;;;;;;;4973807;28;20197;-77
2022/11/26 03:46:10;;;;;;;12.33;7.30;;;;;;;;;;4974670;28;20320;-78
2022/11/26 03:48:35;;;;;;;10.73;7.07;;;;;;;;;;4983164;28;20218;-77
2022/11/26 03:51:00;;;;;;;15.17;7.33;;;;;;;;;;4976975;28;20186;-77
2022/11/26 03:53:25;;;;;;;16.30;7.67;;;;;;;;;;4973523;28;20455;-77
2022/11/26 03:55:50;;;;;;;10.07;6.50;;;;;;;;;;4974404;28;20184;-79
2022/11/26 03:58:16;;;;;;;15.93;7.13;;;;;;;;;;4978622;28;20192;-77
2022/11/26 04:00:41;;;;;;;11.90;6.97;;;;;;;;;;4978542;28;20194;-78
2022/11/26 04:03:06;;;;;;;16.10;7.47;;;;;;;;;;4976459;28;20261;-78
2022/11/26 04:05:31;;;;;;;10.97;5.93;;;;;;;;;;4972748;28;20224;-77
2022/11/26 04:07:56;;;;;;;14.57;8.40;;;;;;;;;;4972240;28;20236;-77
2022/11/26 04:10:22;;;;;;;11.57;6.87;;;;;;;;;;4988386;28;20216;-77
2022/11/26 04:12:47;;;;;;;12.87;7.77;;;;;;;;;;4976688;28;20200;-78
2022/11/26 04:15:12;;;;;;;14.50;7.40;;;;;;;;;;4973546;28;20268;-77
2022/11/26 04:17:37;;;;;;;15.47;6.77;;;;;;;;;;4967130;28;20234;-77
2022/11/26 04:20:03;;;;;;;11.47;6.33;;;;;;;;;;4980320;28;20182;-77
2022/11/26 04:22:28;;;;;;;11.57;7.30;;;;;;;;;;4968695;28;20219;-77
2022/11/26 04:24:53;;;;;;;8.53;5.90;;;;;;;;;;4975037;28;20168;-79
2022/11/26 04:27:18;;;;;;;10.50;7.03;;;;;;;;;;4967978;28;20253;-78
2022/11/26 04:29:43;;;;;;;11.13;6.97;;;;;;;;;;4973145;28;20183;-78
2022/11/26 04:32:09;;;;;;;15.63;7.00;;;;;;;;;;4976772;28;20184;-78
2022/11/26 04:34:34;;;;;;;13.43;6.87;;;;;;;;;;4980191;28;20205;-78
2022/11/26 04:36:59;;;;;;;10.97;7.00;;;;;;;;;;4973068;28;20189;-77
2022/11/26 04:39:24;;;;;;;21.83;7.53;;;;;;;;;;4972209;28;20190;-78
2022/11/26 04:41:49;;;;;;;14.43;8.23;;;;;;;;;;4991743;28;20192;-77
2022/11/26 04:44:15;;;;;;;10.83;7.43;;;;;;;;;;4970744;28;20212;-78
2022/11/26 04:46:40;;;;;;;9.43;5.90;;;;;;;;;;4980698;28;20183;-79
2022/11/26 04:49:05;;;;;;;9.47;5.87;;;;;;;;;;4980047;28;20191;-78
2022/11/26 04:51:30;;;;;;;7.97;5.60;;;;;;;;;;4970370;28;20187;-77
2022/11/26 04:53:55;;;;;;;12.50;5.80;;;;;;;;;;4971991;28;20182;-78
2022/11/26 04:56:21;;;;;;;8.00;5.47;;;;;;;;;;4971481;28;20234;-77
2022/11/26 04:58:46;;;;;;;8.70;4.97;;;;;;;;;;4972642;28;20227;-78
2022/11/26 05:01:11;;;;;;;7.37;5.53;;;;;;;;;;4980688;28;20241;-78
2022/11/26 05:03:36;;;;;;;7.60;4.90;;;;;;;;;;4971086;28;20239;-77
2022/11/26 05:06:02;;;;;;;6.03;4.47;;;;;;;;;;4972802;28;20180;-77
2022/11/26 05:08:27;;;;;;;9.10;5.40;;;;;;;;;;4965247;28;20186;-77
2022/11/26 05:10:53;;;;;;;9.33;5.53;;;;;;;;;;4975129;28;20183;-78
2022/11/26 05:13:18;;;;;;;8.40;5.67;;;;;;;;;;4971433;28;20183;-78
2022/11/26 05:15:43;;;;;;;11.17;5.50;;;;;;;;;;4978089;28;20180;-78
2022/11/26 05:18:09;;;;;;;6.30;5.70;;;;;;;;;;4981668;28;20243;-78
2022/11/26 05:20:34;;;;;;;7.20;5.10;;;;;;;;;;4979414;28;20269;-78
2022/11/26 05:22:59;;;;;;;12.93;5.63;;;;;;;;;;4981091;28;20217;-78
2022/11/26 05:25:24;;;;;;;6.43;5.60;;;;;;;;;;4969778;28;20291;-78
2022/11/26 05:27:49;;;;;;;8.57;5.30;;;;;;;;;;4972083;28;20824;-77
2022/11/26 05:30:15;;;;;;;6.67;5.20;;;;;;;;;;4979116;28;20184;-78
2022/11/26 05:32:40;;;;;;;7.37;5.83;;;;;;;;;;4973280;28;20190;-77
2022/11/26 05:35:05;;;;;;;11.77;6.27;;;;;;;;;;4972883;28;20184;-77
2022/11/26 05:37:30;;;;;;;13.83;6.23;;;;;;;;;;4969874;28;20179;-77
2022/11/26 05:39:56;;;;;;;12.03;10.80;;;;;;;;;;4979636;28;20217;-77
2022/11/26 05:42:21;;;;;;;9.73;5.47;;;;;;;;;;4972267;28;20243;-77
2022/11/26 05:44:46;;;;;;;5.73;4.60;;;;;;;;;;4986681;28;20187;-77
2022/11/26 05:47:11;;;;;;;9.73;5.07;;;;;;;;;;4969323;28;20182;-78
2022/11/26 05:49:36;;;;;;;10.87;5.87;;;;;;;;;;4980589;28;20174;-77
2022/11/26 05:52:02;;;;;;;9.67;5.07;;;;;;;;;;4977145;28;20173;-78
2022/11/26 05:54:27;;;;;;;10.07;5.60;;;;;;;;;;4967540;28;20216;-77
2022/11/26 05:56:52;;;;;;;9.57;4.67;;;;;;;;;;4984245;28;20269;-78
2022/11/26 05:59:17;;;;;;;6.20;4.63;;;;;;;;;;4969539;28;20177;-77
2022/11/26 06:01:42;;;;;;;7.30;4.37;;;;;;;;;;4971389;28;20176;-77
2022/11/26 06:04:08;;;;;;;10.57;5.53;;;;;;;;;;4973493;28;20251;-77
2022/11/26 06:06:33;;;;;;;10.67;4.57;;;;;;;;;;4965663;28;20181;-77
2022/11/26 06:08:58;;;;;;;8.37;4.20;;;;;;;;;;4972147;28;20173;-77
2022/11/26 06:11:23;;;;;;;10.47;4.60;;;;;;;;;;4973512;28;20176;-77
2022/11/26 06:13:48;;;;;;;7.33;4.53;;;;;;;;;;4979495;28;20209;-77
2022/11/26 06:16:13;;;;;;;7.20;4.37;;;;;;;;;;4974836;28;20205;-77
2022/11/26 06:18:39;;;;;;;5.03;4.17;;;;;;;;;;4972923;28;20229;-77
2022/11/26 06:21:05;;;;;;;11.17;4.17;;;;;;;;;;4969740;28;20263;-80
2022/11/26 06:23:30;;;;;;;6.43;3.80;;;;;;;;;;4964073;28;20276;-78
2022/11/26 06:25:55;;;;;;;7.73;4.17;;;;;;;;;;4970495;28;20558;-77
2022/11/26 06:28:21;;;;;;;6.13;3.63;;;;;;;;;;4974826;28;20172;-77
2022/11/26 06:30:46;;;;;;;6.20;4.23;;;;;;;;;;4971258;28;20173;-77
2022/11/26 06:33:12;;;;;;;6.63;4.20;;;;;;;;;;4970763;28;20182;-77
2022/11/26 06:35:37;;;;;;;7.73;3.80;;;;;;;;;;4969180;28;20193;-77
2022/11/26 06:38:02;;;;;;;7.20;5.00;;;;;;;;;;4966585;28;20297;-77
2022/11/26 06:40:27;;;;;;;9.00;4.40;;;;;;;;;;4968528;28;20185;-77
2022/11/26 06:42:53;;;;;;;8.03;6.63;;;;;;;;;;4986939;28;20220;-78
2022/11/26 06:45:18;;;;;;;7.20;4.27;;;;;;;;;;4970773;28;20239;-77
2022/11/26 06:47:47;;;;;;;10.47;5.53;;;;;;;;;;4975450;28;20219;-77
2022/11/26 06:50:13;;;;;;;9.10;4.93;;;;;;;;;;4972122;28;20177;-78
2022/11/26 06:52:39;;;;;;;12.17;4.50;;;;;;;;;;4972509;28;20184;-77
2022/11/26 06:55:04;;;;;;;8.00;5.73;;;;;;;;;;4971605;28;20188;-77
2022/11/26 06:57:29;;;;;;;11.03;6.83;;;;;;;;;;4967782;28;20260;-77
2022/11/26 06:59:55;;;;;;;13.47;6.53;;;;;;;;;;4964835;28;20192;-78
2022/11/26 07:02:20;;;;;;;10.33;6.10;;;;;;;;;;4968927;28;20188;-78
2022/11/26 07:04:45;;;;;;;12.63;6.10;;;;;;;;;;4969194;28;20185;-79
2022/11/26 07:07:10;;;;;;;16.30;6.07;;;;;;;;;;4971887;28;20271;-78
2022/11/26 07:09:37;;;;;;;12.47;6.03;;;;;;;;;;4980934;28;20272;-79
2022/11/26 07:12:02;;;;;;;13.27;5.93;;;;;;;;;;4968182;28;20245;-78
2022/11/26 07:14:28;;;;;;;11.33;5.70;;;;;;;;;;4969147;28;20272;-78
2022/11/26 07:16:53;;;;;;;8.87;5.70;;;;;;;;;;4973043;28;20187;-78
2022/11/26 07:19:18;;;;;;;12.00;5.80;;;;;;;;;;4967032;28;20235;-78
2022/11/26 07:21:43;;;;;;;11.67;6.10;;;;;;;;;;4978031;28;20184;-78
2022/11/26 07:24:09;;;;;;;11.90;7.23;;;;;;;;;;4971597;28;20207;-78
2022/11/26 07:26:34;;;;;;;14.90;7.70;;;;;;;;;;4974389;28;20188;-78
2022/11/26 07:28:59;;;;;;;12.40;8.33;;;;;;;;;;4968798;28;20173;-78
2022/11/26 07:31:25;;;;;;;13.97;8.00;;;;;;;;;;4974241;28;20183;-78
2022/11/26 07:33:50;;;;;;;11.77;6.67;;;;;;;;;;4980515;28;20188;-78
2022/11/26 07:36:20;;;;;;;11.57;8.43;;;;;;;;;;4979458;28;20189;-77
2022/11/26 07:38:45;;;;;;;12.63;8.57;;;;;;;;;;4971541;28;20185;-77
2022/11/26 07:41:12;;;;;;;17.50;10.13;;;;;;;;;;4984288;28;20187;-78
2022/11/26 07:43:38;;;;;;;13.73;9.17;;;;;;;;;;4968145;28;20206;-77
2022/11/26 07:46:04;;;;;;;11.67;6.87;;;;;;;;;;4970399;28;20170;-77
2022/11/26 07:48:30;;;;;;;9.37;6.33;;;;;;;;;;4979309;28;20180;-77
2022/11/26 07:50:55;;;;;;;12.53;10.57;;;;;;;;;;4970672;28;20169;-77
2022/11/26 07:53:20;;;;;;;11.00;9.23;;;;;;;;;;4969682;28;20215;-78
2022/11/26 07:55:45;;;;;;;13.47;7.17;;;;;;;;;;4969856;28;20319;-77
2022/11/26 07:58:11;;;;;;;11.47;7.17;;;;;;;;;;4969441;28;20178;-77
2022/11/26 08:00:36;;;;;;;10.17;4.90;;;;;;;;;;4965359;28;20189;-77
2022/11/26 08:03:01;;;;;;;11.67;5.90;;;;;;;;;;4973112;28;20237;-78
2022/11/26 08:05:26;;;;;;;9.27;5.90;;;;;;;;;;4970098;28;20232;-78
2022/11/26 08:07:51;;;;;;;12.57;6.20;;;;;;;;;;4977477;28;20186;-78
2022/11/26 08:10:17;;;;;;;9.40;5.57;;;;;;;;;;4969755;28;20186;-78
2022/11/26 08:12:42;;;;;;;10.30;7.03;;;;;;;;;;4976380;28;20180;-77
2022/11/26 08:15:07;;;;;;;12.93;6.13;;;;;;;;;;4966258;28;20215;-79
2022/11/26 08:17:33;;;;;;;11.10;5.77;;;;;;;;;;4967291;28;20301;-78
2022/11/26 08:19:58;;;;;;;15.20;5.63;;;;;;;;;;4973804;28;20189;-77
2022/11/26 08:22:23;;;;;;;12.17;6.63;;;;;;;;;;4970290;28;20189;-77
2022/11/26 08:24:48;;;;;;;11.77;5.67;;;;;;;;;;4978338;28;20188;-77
2022/11/26 08:27:14;;;;;;;10.67;6.20;;;;;;;;;;4969077;28;20231;-78
2022/11/26 08:29:39;;;;;;;17.33;6.23;;;;;;;;;;4975325;28;20183;-80
2022/11/26 08:32:04;;;;;;;10.93;5.73;;;;;;;;;;4976742;28;20185;-81
2022/11/26 08:34:29;;;;;;;15.27;5.37;;;;;;;;;;4974952;28;20189;-81
2022/11/26 08:36:55;;;;;;;15.87;6.10;;;;;;;;;;4970007;28;20180;-81
2022/11/26 08:39:20;;;;;;;11.73;6.93;;;;;;;;;;4982361;28;20181;-81
2022/11/26 08:41:45;;;;;;;14.67;7.40;;;;;;;;;;4981964;28;20189;-81
2022/11/26 08:44:10;;;;;;;11.33;5.23;;;;;;;;;;4973033;28;20288;-81
2022/11/26 08:46:37;;;;;;;13.17;5.20;;;;;;;;;;4973081;28;20173;-81
2022/11/26 08:49:02;;;;;;;11.40;4.13;;;;;;;;;;4985539;28;20243;-81
2022/11/26 08:51:27;;;;;;;7.33;4.83;;;;;;;;;;4975358;28;21432;-81
2022/11/26 08:53:52;;;;;;;15.17;5.07;;;;;;;;;;4976248;28;20179;-81
2022/11/26 08:56:18;;;;;;;12.30;4.87;;;;;;;;;;4992789;28;20209;-81
2022/11/26 08:58:44;;;;;;;6.73;3.97;;;;;;;;;;4969968;28;20269;-81
2022/11/26 09:01:13;;;;;;;8.60;3.50;;;;;;;;;;4978399;28;20319;-81
2022/11/26 09:03:38;;;;;;;9.30;3.83;;;;;;;;;;4972439;28;20214;-81
2022/11/26 09:06:04;;;;;;;10.73;4.40;;;;;;;;;;4972909;28;20207;-81
2022/11/26 09:08:30;;;;;;;9.30;4.17;;;;;;;;;;4977345;28;20185;-81
2022/11/26 09:10:56;;;;;;;6.70;3.60;;;;;;;;;;4972230;28;20177;-81
2022/11/26 09:13:22;;;;;;;6.43;3.83;;;;;;;;;;4974028;28;20186;-81
2022/11/26 09:15:50;;;;;;;7.63;4.00;;;;;;;;;;4978917;28;20230;-82
2022/11/26 09:18:16;;;;;;;8.07;3.63;;;;;;;;;;4973910;28;20259;-81
2022/11/26 09:20:41;;;;;;;7.60;3.83;;;;;;;;;;4975214;28;20200;-82
2022/11/26 09:23:06;;;;;;;6.03;3.03;;;;;;;;;;4978828;28;20256;-81
2022/11/26 09:25:31;;;;;;;8.37;2.90;;;;;;;;;;4973617;28;20185;-81
2022/11/26 09:27:57;;;;;;;7.87;3.27;;;;;;;;;;4970736;28;20184;-81
2022/11/26 09:30:22;;;;;;;6.23;2.93;;;;;;;;;;4978303;28;20177;-82
2022/11/26 09:32:47;;;;;;;8.70;3.00;;;;;;;;;;4982347;28;20186;-81
2022/11/26 09:35:13;;;;;;;6.67;2.93;;;;;;;;;;4972764;28;20225;-81
2022/11/26 09:37:38;;;;;;;9.13;2.90;;;;;;;;;;4981149;28;20236;-82
2022/11/26 09:40:03;;;;;;;9.07;3.17;;;;;;;;;;4974508;28;20253;-81
2022/11/26 09:42:41;;;;;;;8.67;3.43;;;;;;;;;;4973546;28;20202;-82
2022/11/26 09:45:25;;;;;;;4.80;3.07;;;;;;;;;;4972708;28;20180;-82
2022/11/26 09:47:52;;;;;;;9.80;3.27;;;;;;;;;;4980958;28;20181;-82
2022/11/26 09:50:17;;;;;;;7.27;3.30;;;;;;;;;;4972737;28;20193;-81
2022/11/26 09:53:02;;;;;;;12.53;4.27;;;;;;;;;;4978223;28;20207;-82
2022/11/26 09:55:35;;;;;;;7.30;3.27;;;;;;;;;;4978555;28;20182;-82
2022/11/26 09:58:04;;;;;;;6.10;3.90;;;;;;;;;;4968883;28;20235;-81
2022/11/26 10:00:32;;;;;;;8.70;3.73;;;;;;;;;;4972818;28;20181;-82
2022/11/26 10:02:57;;;;;;;7.03;3.37;;;;;;;;;;4989392;28;20229;-82
2022/11/26 10:05:39;;;;;;;12.63;3.07;;;;;;;;;;4973253;28;20306;-82
2022/11/26 10:08:12;;;;;;;6.87;3.73;;;;;;;;;;4976669;28;20179;-82
2022/11/26 10:11:16;;;;;;;9.17;5.37;;;;;;;;;;4980449;28;20198;-82
2022/11/26 10:13:59;;;;;;;11.23;4.13;;;;;;;;;;4899956;29;20311;-82
2022/11/26 10:16:33;;;;;;;16.17;6.70;;;;;;;;;;4910010;29;20193;-82
2022/11/26 10:19:06;;;;;;;9.50;3.07;;;;;;;;;;4935995;28;20311;-82
2022/11/26 10:21:40;;;;;;;8.57;4.30;;;;;;;;;;4970480;28;20245;-82
2022/11/26 10:24:05;;;;;;;6.73;2.90;;;;;;;;;;4971948;28;20248;-82
2022/11/26 10:26:33;;;;;;;5.53;3.37;;;;;;;;;;4964396;28;20183;-82
2022/11/26 10:29:13;;;;;;;11.83;3.27;;;;;;;;;;4973425;28;20175;-82
2022/11/26 10:31:39;;;;;;;11.57;2.77;;;;;;;;;;4985877;28;20194;-82
2022/11/26 10:34:10;;;;;;;9.63;2.90;;;;;;;;;;4973758;28;20181;-82
2022/11/26 10:36:38;;;;;;;4.20;2.40;;;;;;;;;;4975973;28;20185;-82
2022/11/26 10:39:03;;;;;;;11.17;3.20;;;;;;;;;;4971448;28;20179;-81
2022/11/26 10:41:30;;;;;;;7.57;3.87;;;;;;;;;;4971847;28;20177;-82
2022/11/26 10:43:55;;;;;;;4.67;2.20;;;;;;;;;;4969413;28;20230;-82
2022/11/26 10:46:34;;;;;;;13.50;6.10;;;;;;;;;;4969985;28;20180;-82
2022/11/26 10:49:35;;;;;;;5.63;2.60;;;;;;;;;;4971710;28;20187;-82
2022/11/26 10:52:02;;;;;;;5.67;3.17;;;;;;;;;;4915430;29;20197;-82
2022/11/26 10:54:35;;;;;;;5.87;3.83;;;;;;;;;;4912852;29;20188;-82
2022/11/26 10:57:02;;;;;;;4.03;2.40;;;;;;;;;;4930056;29;20185;-82
2022/11/26 10:59:29;;;;;;;9.50;3.93;;;;;;;;;;4913234;29;20195;-82
2022/11/26 11:01:59;;;;;;;4.43;2.20;;;;;;;;;;4916220;29;20391;-83
2022/11/26 11:04:33;;;;;;;7.53;2.00;;;;;;;;;;4927927;29;20240;-82
2022/11/26 11:06:59;;;;;;;8.33;2.80;;;;;;;;;;4930060;29;20219;-82
2022/11/26 11:09:26;;;;;;;6.77;2.67;;;;;;;;;;4930071;29;20181;-82
2022/11/26 11:12:10;;;;;;;3.00;2.13;;;;;;;;;;4919560;29;20173;-82
2022/11/26 11:14:35;;;;;;;5.83;2.07;;;;;;;;;;4927606;29;20188;-82
2022/11/26 11:17:01;;;;;;;6.77;2.40;;;;;;;;;;4920670;29;20295;-83
2022/11/26 11:19:26;;;;;;;6.73;3.20;;;;;;;;;;4937109;29;20224;-83
2022/11/26 11:21:52;;;;;;;6.27;2.40;;;;;;;;;;4923401;29;20202;-83
2022/11/26 11:24:20;;;;;;;4.87;2.67;;;;;;;;;;4929770;29;20219;-82
2022/11/26 11:26:47;;;;;;;6.67;2.40;;;;;;;;;;4964022;28;20210;-83
2022/11/26 11:29:24;;;;;;;6.07;2.47;;;;;;;;;;4970832;28;20179;-83
2022/11/26 11:31:49;;;;;;;8.63;2.30;;;;;;;;;;4991600;28;20180;-83
2022/11/26 11:34:33;;;;;;;7.10;2.53;;;;;;;;;;4973509;28;20184;-82
2022/11/26 11:36:58;;;;;;;9.60;2.83;;;;;;;;;;4974604;28;20218;-82
2022/11/26 11:39:28;;;;;;;6.73;2.00;;;;;;;;;;4970826;28;20225;-83
2022/11/26 11:41:53;;;;;;;5.43;2.10;;;;;;;;;;4974200;28;20187;-82
2022/11/26 11:44:37;;;;;;;5.77;2.50;;;;;;;;;;4970519;28;20232;-82
2022/11/26 11:47:12;;;;;;;5.63;2.30;;;;;;;;;;4972725;28;20180;-83
2022/11/26 11:49:52;;;;;;;5.10;2.87;;;;;;;;;;4964450;28;20183;-83
2022/11/26 11:52:25;;;;;;;10.83;2.50;;;;;;;;;;4969080;28;20173;-83
2022/11/26 11:54:58;;;;;;;5.30;2.47;;;;;;;;;;4969700;28;20209;-82
2022/11/26 11:57:33;;;;;;;7.43;2.37;;;;;;;;;;4970769;28;20380;-83
2022/11/26 12:00:12;;;;;;;5.40;2.60;;;;;;;;;;4972092;28;20230;-83
2022/11/26 12:02:56;;;;;;;6.00;2.13;;;;;;;;;;4970815;28;20211;-83
2022/11/26 12:05:36;;;;;;;4.07;2.40;;;;;;;;;;4976731;28;20183;-82
2022/11/26 12:08:05;;;;;;;4.90;2.30;;;;;;;;;;4997625;28;20173;-83
2022/11/26 12:10:56;;;;;;;3.73;2.63;;;;;;;;;;4978356;28;20176;-83
2022/11/26 12:13:22;;;;;;;4.43;2.70;;;;;;;;;;4971645;28;20243;-83
2022/11/26 12:15:51;;;;;;;6.70;2.63;;;;;;;;;;4979192;28;20268;-82
2022/11/26 12:18:19;;;;;;;8.77;2.53;;;;;;;;;;4974562;28;20317;-83
2022/11/26 12:20:54;;;;;;;5.03;2.30;;;;;;;;;;4975798;28;20207;-83
2022/11/26 12:23:28;;;;;;;9.63;5.43;;;;;;;;;;4972223;28;20237;-83
2022/11/26 12:26:17;;;;;;;5.20;2.30;;;;;;;;;;4987460;28;20175;-83
2022/11/26 12:29:11;;;;;;;4.37;2.40;;;;;;;;;;4967654;28;20242;-83
2022/11/26 12:31:38;;;;;;;3.63;2.00;;;;;;;;;;4975149;28;20193;-83
2022/11/26 12:34:11;;;;;;;3.03;2.20;;;;;;;;;;4973961;28;20243;-83
2022/11/26 12:36:52;;;;;;;5.53;2.20;;;;;;;;;;4984241;28;20189;-83
2022/11/26 12:39:31;;;;;;;3.53;2.10;;;;;;;;;;4975010;28;20181;-83
2022/11/26 12:42:06;;;;;;;7.30;3.13;;;;;;;;;;4973440;28;20203;-83
2022/11/26 12:44:34;;;;;;;4.97;3.37;;;;;;;;;;4973828;28;20203;-83
2022/11/26 12:47:19;;;;;;;5.20;2.63;;;;;;;;;;4973781;28;20254;-83
2022/11/26 12:49:50;;;;;;;7.20;3.93;;;;;;;;;;4969854;28;20215;-83
2022/11/26 12:52:34;;;;;;;6.90;2.77;;;;;;;;;;4978690;28;20187;-83
2022/11/26 12:55:11;;;;;;;4.97;2.63;;;;;;;;;;4985625;28;20234;-83
2022/11/26 12:57:43;;;;;;;4.73;2.60;;;;;;;;;;4972348;28;20180;-83
2022/11/26 13:00:09;;;;;;;6.97;3.07;;;;;;;;;;4992248;28;20179;-83
2022/11/26 13:02:36;;;;;;;6.90;6.20;;;;;;;;;;4970057;28;20181;-82
2022/11/26 13:05:02;;;;;;;7.30;2.87;;;;;;;;;;4969505;28;20184;-83
2022/11/26 13:07:51;;;;;;;7.33;3.13;;;;;;;;;;4980189;28;20184;-83
2022/11/26 13:10:34;;;;;;;9.33;3.50;;;;;;;;;;4936117;28;20192;-83
2022/11/26 13:13:05;;;;;;;7.10;3.23;;;;;;;;;;4983905;28;20221;-83
2022/11/26 13:15:31;;;;;;;5.87;2.93;;;;;;;;;;4975958;28;20185;-83
2022/11/26 13:17:57;;;;;;;7.73;4.27;;;;;;;;;;4979496;28;20282;-83
2022/11/26 13:20:32;;;;;;;4.27;2.60;;;;;;;;;;4972029;28;20185;-83
2022/11/26 13:23:04;;;;;;;9.77;3.40;;;;;;;;;;4973014;28;20220;-83
2022/11/26 13:25:40;;;;;;;9.20;3.03;;;;;;;;;;4974926;28;20211;-83
2022/11/26 13:28:08;;;;;;;6.47;3.07;;;;;;;;;;4980999;28;20171;-83
2022/11/26 13:30:43;;;;;;;5.53;2.90;;;;;;;;;;4975817;28;20183;-83
2022/11/26 13:33:27;;;;;;;4.17;2.60;;;;;;;;;;4973684;28;20185;-83
2022/11/26 13:35:57;;;;;;;4.20;2.50;;;;;;;;;;4969340;28;20181;-83
2022/11/26 13:38:44;;;;;;;4.67;2.47;;;;;;;;;;4982948;28;20200;-83
2022/11/26 13:41:19;;;;;;;10.40;2.97;;;;;;;;;;4973969;28;20194;-83
2022/11/26 13:43:53;;;;;;;5.10;3.30;;;;;;;;;;4968166;28;20232;-83
2022/11/26 13:46:24;;;;;;;4.80;3.07;;;;;;;;;;4977856;28;20268;-83
2022/11/26 13:48:53;;;;;;;7.43;2.43;;;;;;;;;;4974766;28;20183;-83
2022/11/26 13:51:23;;;;;;;7.07;3.57;;;;;;;;;;4971522;28;20177;-83
2022/11/26 13:54:03;;;;;;;7.63;5.07;;;;;;;;;;4970532;28;20208;-83
2022/11/26 13:56:31;;;;;;;3.60;2.33;;;;;;;;;;4971998;28;20184;-83
2022/11/26 13:59:14;;;;;;;4.70;2.33;;;;;;;;;;4950821;28;20185;-83
2022/11/26 14:01:40;;;;;;;10.57;6.37;;;;;;;;;;4972806;28;20185;-83
2022/11/26 14:04:10;;;;;;;8.70;3.10;;;;;;;;;;4975338;28;20209;-81
2022/11/26 14:06:35;;;;;;;4.50;4.10;;;;;;;;;;4969600;28;20189;-81
2022/11/26 14:09:01;;;;;;;6.63;3.43;;;;;;;;;;4972268;28;20173;-80
2022/11/26 14:11:56;;;;;;;5.13;3.67;;;;;;;;;;4968065;28;20189;-81
2022/11/26 14:14:24;;;;;;;8.80;2.67;;;;;;;;;;4967040;28;20186;-81
2022/11/26 14:16:59;;;;;;;5.03;3.17;;;;;;;;;;4968479;28;20276;-81
2022/11/26 14:19:44;;;;;;;7.80;3.53;;;;;;;;;;4969153;28;20235;-81
2022/11/26 14:22:18;;;;;;;7.67;3.33;;;;;;;;;;4971521;28;20213;-82
2022/11/26 14:24:49;;;;;;;8.37;3.30;;;;;;;;;;4971016;28;20262;-83
2022/11/26 14:27:15;;;;;;;7.90;3.50;;;;;;;;;;4970662;28;20272;-83
2022/11/26 14:29:40;;;;;;;8.60;3.58;;;;;;;;;;4971909;28;20864;-83
2022/11/26 14:32:21;;;;;;;6.20;3.03;;;;;;;;;;4971704;28;20176;-83
2022/11/26 14:34:53;;;;;;;7.80;3.17;;;;;;;;;;4971467;28;20180;-83
2022/11/26 14:37:23;;;;;;;7.53;3.73;;;;;;;;;;4980948;28;20458;-83
2022/11/26 14:40:02;;;;;;;5.33;2.87;;;;;;;;;;4994101;28;20227;-83
2022/11/26 14:42:28;;;;;;;5.10;2.93;;;;;;;;;;4974485;28;20230;-83
2022/11/26 14:45:15;;;;;;;5.30;3.37;;;;;;;;;;4970604;28;20287;-83
2022/11/26 14:47:41;;;;;;;11.10;3.10;;;;;;;;;;4977562;28;20192;-83